sensor_id;sensor_type;location;lat;lon;timestamp;P1;durP1;ratioP1;P2;durP2;ratioP2
18172;SDS011;9211;48.818;9.312;2023-09-19T00:02:25;1.95;;;0.98;;
18172;SDS011;9211;48.818;9.312;2023-09-19T00:04:52;1.90;;;0.93;;
18172;SDS011;9211;48.818;9.312;2023-09-19T00:07:19;2.33;;;0.87;;
18172;SDS011;9211;48.818;9.312;2023-09-19T00:09:46;1.42;;;0.80;;
18172;SDS011;9211;48.818;9.312;2023-09-19T00:12:13;3.35;;;1.00;;
18172;SDS011;9211;48.818;9.312;2023-09-19T00:14:40;3.10;;;0.85;;
18172;SDS011;9211;48.818;9.312;2023-09-19T00:17:08;4.35;;;1.10;;
18172;SDS011;9211;48.818;9.312;2023-09-19T00:19:35;2.40;;;1.00;;
18172;SDS011;9211;48.818;9.312;2023-09-19T00:22:03;2.00;;;0.80;;
18172;SDS011;9211;48.818;9.312;2023-09-19T00:24:30;3.20;;;0.97;;
18172;SDS011;9211;48.818;9.312;2023-09-19T00:26:57;2.92;;;0.85;;
18172;SDS011;9211;48.818;9.312;2023-09-19T00:29:24;4.05;;;1.00;;
18172;SDS011;9211;48.818;9.312;2023-09-19T00:31:54;5.63;;;1.00;;
18172;SDS011;9211;48.818;9.312;2023-09-19T00:34:23;2.20;;;0.80;;
18172;SDS011;9211;48.818;9.312;2023-09-19T00:36:50;2.17;;;0.80;;
18172;SDS011;9211;48.818;9.312;2023-09-19T00:39:19;2.53;;;0.80;;
18172;SDS011;9211;48.818;9.312;2023-09-19T00:41:47;3.80;;;1.00;;
18172;SDS011;9211;48.818;9.312;2023-09-19T00:44:14;2.63;;;0.85;;
18172;SDS011;9211;48.818;9.312;2023-09-19T00:46:42;2.20;;;0.80;;
18172;SDS011;9211;48.818;9.312;2023-09-19T00:49:13;2.53;;;0.90;;
18172;SDS011;9211;48.818;9.312;2023-09-19T00:51:42;4.03;;;0.90;;
18172;SDS011;9211;48.818;9.312;2023-09-19T00:54:12;4.40;;;0.90;;
18172;SDS011;9211;48.818;9.312;2023-09-19T00:56:43;2.50;;;0.90;;
18172;SDS011;9211;48.818;9.312;2023-09-19T00:59:11;2.05;;;0.90;;
18172;SDS011;9211;48.818;9.312;2023-09-19T01:01:38;2.15;;;0.88;;
18172;SDS011;9211;48.818;9.312;2023-09-19T01:04:06;2.28;;;1.05;;
18172;SDS011;9211;48.818;9.312;2023-09-19T01:06:33;3.42;;;1.00;;
18172;SDS011;9211;48.818;9.312;2023-09-19T01:09:04;2.97;;;0.95;;
18172;SDS011;9211;48.818;9.312;2023-09-19T01:11:32;3.00;;;0.90;;
18172;SDS011;9211;48.818;9.312;2023-09-19T01:14:09;2.23;;;0.90;;
18172;SDS011;9211;48.818;9.312;2023-09-19T01:16:48;2.00;;;0.87;;
18172;SDS011;9211;48.818;9.312;2023-09-19T01:19:27;1.92;;;0.80;;
18172;SDS011;9211;48.818;9.312;2023-09-19T01:22:16;2.85;;;0.88;;
18172;SDS011;9211;48.818;9.312;2023-09-19T01:28:14;3.00;;;0.80;;
18172;SDS011;9211;48.818;9.312;2023-09-19T01:31:03;3.33;;;0.82;;
18172;SDS011;9211;48.818;9.312;2023-09-19T01:33:53;2.55;;;0.70;;
18172;SDS011;9211;48.818;9.312;2023-09-19T01:36:24;1.88;;;0.75;;
18172;SDS011;9211;48.818;9.312;2023-09-19T01:38:52;2.08;;;0.90;;
18172;SDS011;9211;48.818;9.312;2023-09-19T01:41:24;1.50;;;0.80;;
18172;SDS011;9211;48.818;9.312;2023-09-19T01:43:55;2.75;;;0.90;;
18172;SDS011;9211;48.818;9.312;2023-09-19T01:46:29;4.80;;;1.00;;
18172;SDS011;9211;48.818;9.312;2023-09-19T01:49:11;2.88;;;0.75;;
18172;SDS011;9211;48.818;9.312;2023-09-19T01:51:46;2.37;;;0.90;;
18172;SDS011;9211;48.818;9.312;2023-09-19T01:54:24;3.92;;;0.80;;
18172;SDS011;9211;48.818;9.312;2023-09-19T01:56:57;2.20;;;0.80;;
18172;SDS011;9211;48.818;9.312;2023-09-19T01:59:35;3.53;;;1.00;;
18172;SDS011;9211;48.818;9.312;2023-09-19T02:02:09;2.03;;;0.90;;
18172;SDS011;9211;48.818;9.312;2023-09-19T02:04:37;2.13;;;0.90;;
18172;SDS011;9211;48.818;9.312;2023-09-19T02:07:04;3.10;;;0.80;;
18172;SDS011;9211;48.818;9.312;2023-09-19T02:09:33;1.27;;;0.80;;
18172;SDS011;9211;48.818;9.312;2023-09-19T02:12:00;4.22;;;0.90;;
18172;SDS011;9211;48.818;9.312;2023-09-19T02:14:29;2.60;;;0.70;;
18172;SDS011;9211;48.818;9.312;2023-09-19T02:16:57;2.83;;;0.90;;
18172;SDS011;9211;48.818;9.312;2023-09-19T02:19:26;2.90;;;0.80;;
18172;SDS011;9211;48.818;9.312;2023-09-19T02:21:55;1.00;;;0.70;;
18172;SDS011;9211;48.818;9.312;2023-09-19T02:24:22;2.60;;;0.90;;
18172;SDS011;9211;48.818;9.312;2023-09-19T02:26:52;3.53;;;0.80;;
18172;SDS011;9211;48.818;9.312;2023-09-19T02:29:19;2.25;;;0.80;;
18172;SDS011;9211;48.818;9.312;2023-09-19T02:31:47;1.55;;;0.70;;
18172;SDS011;9211;48.818;9.312;2023-09-19T02:34:14;1.50;;;0.80;;
18172;SDS011;9211;48.818;9.312;2023-09-19T02:36:44;2.15;;;0.73;;
18172;SDS011;9211;48.818;9.312;2023-09-19T02:39:11;3.08;;;0.98;;
18172;SDS011;9211;48.818;9.312;2023-09-19T02:41:38;2.15;;;0.80;;
18172;SDS011;9211;48.818;9.312;2023-09-19T02:44:06;2.08;;;0.85;;
18172;SDS011;9211;48.818;9.312;2023-09-19T02:46:34;1.88;;;0.80;;
18172;SDS011;9211;48.818;9.312;2023-09-19T02:49:02;3.20;;;0.80;;
18172;SDS011;9211;48.818;9.312;2023-09-19T02:51:30;2.13;;;0.82;;
18172;SDS011;9211;48.818;9.312;2023-09-19T02:53:59;2.70;;;0.77;;
18172;SDS011;9211;48.818;9.312;2023-09-19T02:56:28;2.28;;;0.90;;
18172;SDS011;9211;48.818;9.312;2023-09-19T02:58:56;2.40;;;0.82;;
18172;SDS011;9211;48.818;9.312;2023-09-19T03:01:23;4.32;;;0.90;;
18172;SDS011;9211;48.818;9.312;2023-09-19T03:03:50;2.15;;;0.70;;
18172;SDS011;9211;48.818;9.312;2023-09-19T03:06:19;2.28;;;0.82;;
18172;SDS011;9211;48.818;9.312;2023-09-19T03:08:46;4.63;;;0.95;;
18172;SDS011;9211;48.818;9.312;2023-09-19T03:11:16;1.70;;;0.80;;
18172;SDS011;9211;48.818;9.312;2023-09-19T03:13:50;1.42;;;0.80;;
18172;SDS011;9211;48.818;9.312;2023-09-19T03:16:18;1.60;;;0.80;;
18172;SDS011;9211;48.818;9.312;2023-09-19T03:18:47;2.80;;;0.83;;
18172;SDS011;9211;48.818;9.312;2023-09-19T03:21:15;2.00;;;0.80;;
18172;SDS011;9211;48.818;9.312;2023-09-19T03:23:44;2.38;;;0.80;;
18172;SDS011;9211;48.818;9.312;2023-09-19T03:26:11;1.48;;;0.70;;
18172;SDS011;9211;48.818;9.312;2023-09-19T03:28:42;2.13;;;0.90;;
18172;SDS011;9211;48.818;9.312;2023-09-19T03:31:12;2.03;;;0.93;;
18172;SDS011;9211;48.818;9.312;2023-09-19T03:33:39;1.23;;;0.70;;
18172;SDS011;9211;48.818;9.312;2023-09-19T03:36:06;1.63;;;0.70;;
18172;SDS011;9211;48.818;9.312;2023-09-19T03:38:33;1.52;;;0.82;;
18172;SDS011;9211;48.818;9.312;2023-09-19T03:41:00;1.40;;;0.80;;
18172;SDS011;9211;48.818;9.312;2023-09-19T03:43:27;1.30;;;0.82;;
18172;SDS011;9211;48.818;9.312;2023-09-19T03:45:56;2.45;;;0.90;;
18172;SDS011;9211;48.818;9.312;2023-09-19T03:48:23;2.38;;;0.77;;
18172;SDS011;9211;48.818;9.312;2023-09-19T03:50:51;2.70;;;0.80;;
18172;SDS011;9211;48.818;9.312;2023-09-19T03:53:19;2.78;;;0.93;;
18172;SDS011;9211;48.818;9.312;2023-09-19T03:55:45;2.28;;;0.80;;
18172;SDS011;9211;48.818;9.312;2023-09-19T03:58:12;2.03;;;0.90;;
18172;SDS011;9211;48.818;9.312;2023-09-19T04:00:39;1.80;;;0.80;;
18172;SDS011;9211;48.818;9.312;2023-09-19T04:03:08;3.60;;;1.05;;
18172;SDS011;9211;48.818;9.312;2023-09-19T04:05:44;2.72;;;1.00;;
18172;SDS011;9211;48.818;9.312;2023-09-19T04:08:12;2.40;;;1.00;;
18172;SDS011;9211;48.818;9.312;2023-09-19T04:10:41;2.00;;;1.02;;
18172;SDS011;9211;48.818;9.312;2023-09-19T04:13:08;2.67;;;1.00;;
18172;SDS011;9211;48.818;9.312;2023-09-19T04:15:36;1.85;;;0.82;;
18172;SDS011;9211;48.818;9.312;2023-09-19T04:18:03;2.40;;;0.93;;
18172;SDS011;9211;48.818;9.312;2023-09-19T04:20:32;1.52;;;0.85;;
18172;SDS011;9211;48.818;9.312;2023-09-19T04:22:59;2.25;;;0.90;;
18172;SDS011;9211;48.818;9.312;2023-09-19T04:25:26;3.20;;;0.90;;
18172;SDS011;9211;48.818;9.312;2023-09-19T04:27:54;2.45;;;0.80;;
18172;SDS011;9211;48.818;9.312;2023-09-19T04:30:21;1.80;;;0.95;;
18172;SDS011;9211;48.818;9.312;2023-09-19T04:32:48;2.35;;;0.90;;
18172;SDS011;9211;48.818;9.312;2023-09-19T04:35:16;4.20;;;0.98;;
18172;SDS011;9211;48.818;9.312;2023-09-19T04:37:44;5.45;;;0.90;;
18172;SDS011;9211;48.818;9.312;2023-09-19T04:40:13;2.38;;;1.00;;
18172;SDS011;9211;48.818;9.312;2023-09-19T04:42:42;2.83;;;1.10;;
18172;SDS011;9211;48.818;9.312;2023-09-19T04:45:09;3.63;;;1.10;;
18172;SDS011;9211;48.818;9.312;2023-09-19T04:47:36;3.60;;;1.00;;
18172;SDS011;9211;48.818;9.312;2023-09-19T04:50:05;3.65;;;1.20;;
18172;SDS011;9211;48.818;9.312;2023-09-19T04:52:37;3.35;;;1.13;;
18172;SDS011;9211;48.818;9.312;2023-09-19T04:55:09;2.47;;;1.20;;
18172;SDS011;9211;48.818;9.312;2023-09-19T04:57:42;4.18;;;1.38;;
18172;SDS011;9211;48.818;9.312;2023-09-19T05:00:11;4.53;;;1.40;;
18172;SDS011;9211;48.818;9.312;2023-09-19T05:02:40;3.15;;;1.30;;
18172;SDS011;9211;48.818;9.312;2023-09-19T05:05:07;3.20;;;1.30;;
18172;SDS011;9211;48.818;9.312;2023-09-19T05:07:35;3.47;;;1.30;;
18172;SDS011;9211;48.818;9.312;2023-09-19T05:10:02;3.17;;;1.30;;
18172;SDS011;9211;48.818;9.312;2023-09-19T05:12:33;5.33;;;1.30;;
18172;SDS011;9211;48.818;9.312;2023-09-19T05:15:01;3.85;;;1.10;;
18172;SDS011;9211;48.818;9.312;2023-09-19T05:17:28;4.00;;;1.20;;
18172;SDS011;9211;48.818;9.312;2023-09-19T05:19:56;4.13;;;1.23;;
18172;SDS011;9211;48.818;9.312;2023-09-19T05:22:23;4.05;;;1.40;;
18172;SDS011;9211;48.818;9.312;2023-09-19T05:24:50;3.97;;;1.15;;
18172;SDS011;9211;48.818;9.312;2023-09-19T05:27:18;3.90;;;1.47;;
18172;SDS011;9211;48.818;9.312;2023-09-19T05:29:47;3.95;;;1.20;;
18172;SDS011;9211;48.818;9.312;2023-09-19T05:32:16;4.80;;;1.40;;
18172;SDS011;9211;48.818;9.312;2023-09-19T05:34:43;4.60;;;1.38;;
18172;SDS011;9211;48.818;9.312;2023-09-19T05:37:09;2.80;;;1.25;;
18172;SDS011;9211;48.818;9.312;2023-09-19T05:39:36;4.47;;;1.73;;
18172;SDS011;9211;48.818;9.312;2023-09-19T05:42:03;4.47;;;1.40;;
18172;SDS011;9211;48.818;9.312;2023-09-19T05:44:30;6.40;;;1.58;;
18172;SDS011;9211;48.818;9.312;2023-09-19T05:46:59;3.47;;;1.33;;
18172;SDS011;9211;48.818;9.312;2023-09-19T05:49:26;6.10;;;1.60;;
18172;SDS011;9211;48.818;9.312;2023-09-19T05:51:53;5.77;;;1.40;;
18172;SDS011;9211;48.818;9.312;2023-09-19T05:54:24;5.68;;;1.50;;
18172;SDS011;9211;48.818;9.312;2023-09-19T05:56:51;3.35;;;1.30;;
18172;SDS011;9211;48.818;9.312;2023-09-19T05:59:18;3.15;;;1.30;;
18172;SDS011;9211;48.818;9.312;2023-09-19T06:01:45;3.80;;;1.30;;
18172;SDS011;9211;48.818;9.312;2023-09-19T06:04:13;2.25;;;1.10;;
18172;SDS011;9211;48.818;9.312;2023-09-19T06:06:40;2.45;;;1.13;;
18172;SDS011;9211;48.818;9.312;2023-09-19T06:09:07;4.07;;;1.30;;
18172;SDS011;9211;48.818;9.312;2023-09-19T06:11:34;3.92;;;1.58;;
18172;SDS011;9211;48.818;9.312;2023-09-19T06:14:01;2.45;;;1.30;;
18172;SDS011;9211;48.818;9.312;2023-09-19T06:16:28;3.63;;;1.50;;
18172;SDS011;9211;48.818;9.312;2023-09-19T06:18:57;4.93;;;1.60;;
18172;SDS011;9211;48.818;9.312;2023-09-19T06:21:26;4.15;;;1.70;;
18172;SDS011;9211;48.818;9.312;2023-09-19T06:23:53;4.63;;;1.70;;
18172;SDS011;9211;48.818;9.312;2023-09-19T06:26:20;4.35;;;1.42;;
18172;SDS011;9211;48.818;9.312;2023-09-19T06:28:49;3.33;;;1.50;;
18172;SDS011;9211;48.818;9.312;2023-09-19T06:31:16;3.17;;;1.70;;
18172;SDS011;9211;48.818;9.312;2023-09-19T06:33:43;3.15;;;1.90;;
18172;SDS011;9211;48.818;9.312;2023-09-19T06:36:10;3.75;;;1.65;;
18172;SDS011;9211;48.818;9.312;2023-09-19T06:38:38;5.70;;;1.88;;
18172;SDS011;9211;48.818;9.312;2023-09-19T06:41:06;5.10;;;1.60;;
18172;SDS011;9211;48.818;9.312;2023-09-19T06:43:33;4.50;;;1.80;;
18172;SDS011;9211;48.818;9.312;2023-09-19T06:46:01;3.95;;;1.60;;
18172;SDS011;9211;48.818;9.312;2023-09-19T06:48:28;3.83;;;1.60;;
18172;SDS011;9211;48.818;9.312;2023-09-19T06:50:55;4.23;;;1.80;;
18172;SDS011;9211;48.818;9.312;2023-09-19T06:53:23;4.57;;;1.80;;
18172;SDS011;9211;48.818;9.312;2023-09-19T06:55:51;5.40;;;1.85;;
18172;SDS011;9211;48.818;9.312;2023-09-19T06:58:19;5.13;;;1.90;;
18172;SDS011;9211;48.818;9.312;2023-09-19T07:00:46;6.60;;;2.03;;
18172;SDS011;9211;48.818;9.312;2023-09-19T07:03:15;4.30;;;1.83;;
18172;SDS011;9211;48.818;9.312;2023-09-19T07:05:47;4.13;;;1.90;;
18172;SDS011;9211;48.818;9.312;2023-09-19T07:08:14;3.77;;;1.80;;
18172;SDS011;9211;48.818;9.312;2023-09-19T07:10:41;4.13;;;1.60;;
18172;SDS011;9211;48.818;9.312;2023-09-19T07:13:15;5.25;;;1.90;;
18172;SDS011;9211;48.818;9.312;2023-09-19T07:15:43;4.47;;;2.00;;
18172;SDS011;9211;48.818;9.312;2023-09-19T07:18:12;5.03;;;1.90;;
18172;SDS011;9211;48.818;9.312;2023-09-19T07:20:40;5.13;;;1.85;;
18172;SDS011;9211;48.818;9.312;2023-09-19T07:23:10;5.43;;;1.90;;
18172;SDS011;9211;48.818;9.312;2023-09-19T07:25:40;3.80;;;1.67;;
18172;SDS011;9211;48.818;9.312;2023-09-19T07:28:06;4.18;;;1.88;;
18172;SDS011;9211;48.818;9.312;2023-09-19T07:30:36;4.88;;;1.65;;
18172;SDS011;9211;48.818;9.312;2023-09-19T07:33:04;4.60;;;1.73;;
18172;SDS011;9211;48.818;9.312;2023-09-19T07:35:31;6.18;;;1.67;;
18172;SDS011;9211;48.818;9.312;2023-09-19T07:37:58;3.97;;;1.65;;
18172;SDS011;9211;48.818;9.312;2023-09-19T07:40:26;4.25;;;1.73;;
18172;SDS011;9211;48.818;9.312;2023-09-19T07:42:54;3.50;;;1.60;;
18172;SDS011;9211;48.818;9.312;2023-09-19T07:45:21;4.60;;;1.63;;
18172;SDS011;9211;48.818;9.312;2023-09-19T07:47:51;5.88;;;1.98;;
18172;SDS011;9211;48.818;9.312;2023-09-19T07:50:19;5.35;;;1.80;;
18172;SDS011;9211;48.818;9.312;2023-09-19T07:52:46;5.78;;;1.80;;
18172;SDS011;9211;48.818;9.312;2023-09-19T07:55:16;4.75;;;1.42;;
18172;SDS011;9211;48.818;9.312;2023-09-19T07:57:44;4.93;;;1.90;;
18172;SDS011;9211;48.818;9.312;2023-09-19T08:00:12;3.33;;;1.40;;
18172;SDS011;9211;48.818;9.312;2023-09-19T08:02:40;6.50;;;1.95;;
18172;SDS011;9211;48.818;9.312;2023-09-19T08:05:09;4.78;;;1.73;;
18172;SDS011;9211;48.818;9.312;2023-09-19T08:07:37;4.78;;;1.50;;
18172;SDS011;9211;48.818;9.312;2023-09-19T08:10:05;4.68;;;1.60;;
18172;SDS011;9211;48.818;9.312;2023-09-19T08:12:38;4.85;;;1.45;;
18172;SDS011;9211;48.818;9.312;2023-09-19T08:15:11;4.00;;;1.40;;
18172;SDS011;9211;48.818;9.312;2023-09-19T08:17:38;3.90;;;1.60;;
18172;SDS011;9211;48.818;9.312;2023-09-19T08:20:06;4.25;;;1.50;;
18172;SDS011;9211;48.818;9.312;2023-09-19T08:22:43;4.20;;;1.63;;
18172;SDS011;9211;48.818;9.312;2023-09-19T08:25:12;4.75;;;1.40;;
18172;SDS011;9211;48.818;9.312;2023-09-19T08:27:42;3.45;;;1.35;;
18172;SDS011;9211;48.818;9.312;2023-09-19T08:30:13;4.45;;;1.45;;
18172;SDS011;9211;48.818;9.312;2023-09-19T08:32:40;5.43;;;1.65;;
18172;SDS011;9211;48.818;9.312;2023-09-19T08:35:08;4.47;;;1.50;;
18172;SDS011;9211;48.818;9.312;2023-09-19T08:37:35;3.30;;;1.40;;
18172;SDS011;9211;48.818;9.312;2023-09-19T08:40:04;2.42;;;1.20;;
18172;SDS011;9211;48.818;9.312;2023-09-19T08:42:46;3.53;;;1.23;;
18172;SDS011;9211;48.818;9.312;2023-09-19T08:45:15;2.17;;;1.20;;
18172;SDS011;9211;48.818;9.312;2023-09-19T08:47:44;2.47;;;1.30;;
18172;SDS011;9211;48.818;9.312;2023-09-19T08:50:18;2.60;;;1.10;;
18172;SDS011;9211;48.818;9.312;2023-09-19T08:52:50;3.97;;;1.40;;
18172;SDS011;9211;48.818;9.312;2023-09-19T08:55:22;4.18;;;1.40;;
18172;SDS011;9211;48.818;9.312;2023-09-19T08:57:54;3.08;;;1.27;;
18172;SDS011;9211;48.818;9.312;2023-09-19T09:00:27;3.45;;;1.20;;
18172;SDS011;9211;48.818;9.312;2023-09-19T09:02:54;2.88;;;1.20;;
18172;SDS011;9211;48.818;9.312;2023-09-19T09:05:22;3.30;;;1.30;;
18172;SDS011;9211;48.818;9.312;2023-09-19T09:07:51;4.82;;;1.17;;
18172;SDS011;9211;48.818;9.312;2023-09-19T09:10:22;4.15;;;1.27;;
18172;SDS011;9211;48.818;9.312;2023-09-19T09:12:50;3.90;;;1.40;;
18172;SDS011;9211;48.818;9.312;2023-09-19T09:15:18;3.40;;;1.10;;
18172;SDS011;9211;48.818;9.312;2023-09-19T09:17:48;4.50;;;1.20;;
18172;SDS011;9211;48.818;9.312;2023-09-19T09:20:15;2.65;;;1.15;;
18172;SDS011;9211;48.818;9.312;2023-09-19T09:22:50;2.60;;;1.15;;
18172;SDS011;9211;48.818;9.312;2023-09-19T09:25:18;3.88;;;1.20;;
18172;SDS011;9211;48.818;9.312;2023-09-19T09:27:59;3.70;;;1.27;;
18172;SDS011;9211;48.818;9.312;2023-09-19T09:30:33;2.50;;;1.10;;
18172;SDS011;9211;48.818;9.312;2023-09-19T09:33:08;3.50;;;1.20;;
18172;SDS011;9211;48.818;9.312;2023-09-19T09:35:36;3.17;;;1.20;;
18172;SDS011;9211;48.818;9.312;2023-09-19T09:38:06;3.40;;;1.23;;
18172;SDS011;9211;48.818;9.312;2023-09-19T09:43:27;3.63;;;1.10;;
18172;SDS011;9211;48.818;9.312;2023-09-19T09:46:06;4.65;;;1.30;;
18172;SDS011;9211;48.818;9.312;2023-09-19T09:49:10;2.75;;;1.10;;
18172;SDS011;9211;48.818;9.312;2023-09-19T09:51:44;2.70;;;1.10;;
18172;SDS011;9211;48.818;9.312;2023-09-19T09:54:22;2.60;;;1.10;;
18172;SDS011;9211;48.818;9.312;2023-09-19T09:56:55;2.17;;;1.10;;
18172;SDS011;9211;48.818;9.312;2023-09-19T10:02:25;3.00;;;1.00;;
18172;SDS011;9211;48.818;9.312;2023-09-19T10:04:58;2.80;;;1.02;;
18172;SDS011;9211;48.818;9.312;2023-09-19T10:07:34;2.10;;;1.20;;
18172;SDS011;9211;48.818;9.312;2023-09-19T10:10:04;3.63;;;1.20;;
18172;SDS011;9211;48.818;9.312;2023-09-19T10:12:44;2.65;;;1.10;;
18172;SDS011;9211;48.818;9.312;2023-09-19T10:15:14;2.83;;;1.07;;
18172;SDS011;9211;48.818;9.312;2023-09-19T10:17:45;2.65;;;1.20;;
18172;SDS011;9211;48.818;9.312;2023-09-19T10:20:13;2.15;;;1.10;;
18172;SDS011;9211;48.818;9.312;2023-09-19T10:22:59;3.88;;;1.30;;
18172;SDS011;9211;48.818;9.312;2023-09-19T10:25:27;2.85;;;1.10;;
18172;SDS011;9211;48.818;9.312;2023-09-19T10:27:55;4.07;;;1.30;;
18172;SDS011;9211;48.818;9.312;2023-09-19T10:30:27;3.35;;;1.20;;
18172;SDS011;9211;48.818;9.312;2023-09-19T10:32:57;2.58;;;1.17;;
18172;SDS011;9211;48.818;9.312;2023-09-19T10:35:28;2.92;;;1.08;;
18172;SDS011;9211;48.818;9.312;2023-09-19T10:37:57;2.87;;;1.10;;
18172;SDS011;9211;48.818;9.312;2023-09-19T10:40:27;3.67;;;1.20;;
18172;SDS011;9211;48.818;9.312;2023-09-19T10:43:00;3.47;;;1.10;;
18172;SDS011;9211;48.818;9.312;2023-09-19T10:45:32;2.33;;;1.20;;
18172;SDS011;9211;48.818;9.312;2023-09-19T10:48:00;2.65;;;1.10;;
18172;SDS011;9211;48.818;9.312;2023-09-19T10:50:30;2.47;;;1.10;;
18172;SDS011;9211;48.818;9.312;2023-09-19T10:53:00;2.33;;;1.15;;
18172;SDS011;9211;48.818;9.312;2023-09-19T10:55:32;3.05;;;1.20;;
18172;SDS011;9211;48.818;9.312;2023-09-19T10:58:01;4.03;;;1.13;;
18172;SDS011;9211;48.818;9.312;2023-09-19T11:03:20;3.72;;;1.30;;
18172;SDS011;9211;48.818;9.312;2023-09-19T11:06:01;2.25;;;1.00;;
18172;SDS011;9211;48.818;9.312;2023-09-19T11:11:44;2.58;;;1.10;;
18172;SDS011;9211;48.818;9.312;2023-09-19T11:20:21;1.65;;;1.10;;
18172;SDS011;9211;48.818;9.312;2023-09-19T11:23:18;3.13;;;1.20;;
18172;SDS011;9211;48.818;9.312;2023-09-19T11:25:51;2.35;;;1.00;;
18172;SDS011;9211;48.818;9.312;2023-09-19T11:28:32;3.13;;;1.10;;
18172;SDS011;9211;48.818;9.312;2023-09-19T11:34:41;1.93;;;1.00;;
18172;SDS011;9211;48.818;9.312;2023-09-19T11:40:36;2.10;;;0.88;;
18172;SDS011;9211;48.818;9.312;2023-09-19T11:46:01;2.85;;;0.80;;
18172;SDS011;9211;48.818;9.312;2023-09-19T11:48:28;2.80;;;1.00;;
18172;SDS011;9211;48.818;9.312;2023-09-19T11:50:59;4.03;;;1.02;;
18172;SDS011;9211;48.818;9.312;2023-09-19T11:53:32;3.55;;;1.00;;
18172;SDS011;9211;48.818;9.312;2023-09-19T11:56:01;2.30;;;0.90;;
18172;SDS011;9211;48.818;9.312;2023-09-19T11:58:32;3.37;;;0.80;;
18172;SDS011;9211;48.818;9.312;2023-09-19T12:00:59;2.20;;;0.80;;
18172;SDS011;9211;48.818;9.312;2023-09-19T12:03:33;2.83;;;0.80;;
18172;SDS011;9211;48.818;9.312;2023-09-19T12:06:11;2.10;;;0.73;;
18172;SDS011;9211;48.818;9.312;2023-09-19T12:08:40;2.87;;;0.97;;
18172;SDS011;9211;48.818;9.312;2023-09-19T12:11:11;4.95;;;0.90;;
18172;SDS011;9211;48.818;9.312;2023-09-19T12:13:43;2.40;;;1.00;;
18172;SDS011;9211;48.818;9.312;2023-09-19T12:16:11;2.13;;;0.90;;
18172;SDS011;9211;48.818;9.312;2023-09-19T12:18:41;1.90;;;0.85;;
18172;SDS011;9211;48.818;9.312;2023-09-19T12:21:22;2.63;;;0.80;;
18172;SDS011;9211;48.818;9.312;2023-09-19T12:23:59;2.45;;;0.90;;
18172;SDS011;9211;48.818;9.312;2023-09-19T12:26:41;2.00;;;0.85;;
18172;SDS011;9211;48.818;9.312;2023-09-19T12:29:13;1.77;;;0.80;;
18172;SDS011;9211;48.818;9.312;2023-09-19T12:31:50;1.43;;;0.70;;
18172;SDS011;9211;48.818;9.312;2023-09-19T12:34:20;2.75;;;0.93;;
18172;SDS011;9211;48.818;9.312;2023-09-19T12:37:01;2.92;;;1.00;;
18172;SDS011;9211;48.818;9.312;2023-09-19T12:39:30;4.97;;;0.80;;
18172;SDS011;9211;48.818;9.312;2023-09-19T12:41:57;2.58;;;0.80;;
18172;SDS011;9211;48.818;9.312;2023-09-19T12:44:24;2.13;;;0.80;;
18172;SDS011;9211;48.818;9.312;2023-09-19T12:46:51;1.90;;;0.82;;
18172;SDS011;9211;48.818;9.312;2023-09-19T12:49:19;1.85;;;0.82;;
18172;SDS011;9211;48.818;9.312;2023-09-19T12:51:48;2.25;;;0.90;;
18172;SDS011;9211;48.818;9.312;2023-09-19T12:54:21;1.85;;;1.00;;
18172;SDS011;9211;48.818;9.312;2023-09-19T12:56:50;3.10;;;0.90;;
18172;SDS011;9211;48.818;9.312;2023-09-19T12:59:19;1.95;;;0.90;;
18172;SDS011;9211;48.818;9.312;2023-09-19T13:02:03;2.85;;;0.90;;
18172;SDS011;9211;48.818;9.312;2023-09-19T13:04:32;3.43;;;1.00;;
18172;SDS011;9211;48.818;9.312;2023-09-19T13:07:06;2.15;;;0.90;;
18172;SDS011;9211;48.818;9.312;2023-09-19T13:09:34;1.75;;;1.00;;
18172;SDS011;9211;48.818;9.312;2023-09-19T13:12:01;2.30;;;1.00;;
18172;SDS011;9211;48.818;9.312;2023-09-19T13:14:29;2.40;;;0.90;;
18172;SDS011;9211;48.818;9.312;2023-09-19T13:16:59;1.90;;;0.80;;
18172;SDS011;9211;48.818;9.312;2023-09-19T13:19:34;2.58;;;1.05;;
18172;SDS011;9211;48.818;9.312;2023-09-19T13:22:10;2.53;;;1.10;;
18172;SDS011;9211;48.818;9.312;2023-09-19T13:25:05;1.98;;;1.00;;
18172;SDS011;9211;48.818;9.312;2023-09-19T13:27:33;2.60;;;1.20;;
18172;SDS011;9211;48.818;9.312;2023-09-19T13:30:00;2.92;;;1.00;;
18172;SDS011;9211;48.818;9.312;2023-09-19T13:32:27;2.75;;;1.00;;
18172;SDS011;9211;48.818;9.312;2023-09-19T13:34:53;1.83;;;1.00;;
18172;SDS011;9211;48.818;9.312;2023-09-19T13:37:22;2.63;;;1.08;;
18172;SDS011;9211;48.818;9.312;2023-09-19T13:39:48;2.40;;;0.98;;
18172;SDS011;9211;48.818;9.312;2023-09-19T13:42:17;2.35;;;0.80;;
18172;SDS011;9211;48.818;9.312;2023-09-19T13:44:47;2.25;;;1.00;;
18172;SDS011;9211;48.818;9.312;2023-09-19T13:47:13;2.33;;;1.07;;
18172;SDS011;9211;48.818;9.312;2023-09-19T13:49:41;2.70;;;1.00;;
18172;SDS011;9211;48.818;9.312;2023-09-19T13:52:09;3.80;;;1.00;;
18172;SDS011;9211;48.818;9.312;2023-09-19T13:54:39;3.17;;;1.00;;
18172;SDS011;9211;48.818;9.312;2023-09-19T13:57:06;2.65;;;0.90;;
18172;SDS011;9211;48.818;9.312;2023-09-19T13:59:33;2.28;;;0.88;;
18172;SDS011;9211;48.818;9.312;2023-09-19T14:02:00;3.97;;;1.20;;
18172;SDS011;9211;48.818;9.312;2023-09-19T14:04:30;4.18;;;1.23;;
18172;SDS011;9211;48.818;9.312;2023-09-19T14:06:59;2.13;;;1.03;;
18172;SDS011;9211;48.818;9.312;2023-09-19T14:09:26;3.63;;;1.10;;
18172;SDS011;9211;48.818;9.312;2023-09-19T14:11:55;2.47;;;1.10;;
18172;SDS011;9211;48.818;9.312;2023-09-19T14:14:22;3.92;;;1.10;;
18172;SDS011;9211;48.818;9.312;2023-09-19T14:16:49;2.60;;;1.00;;
18172;SDS011;9211;48.818;9.312;2023-09-19T14:19:17;2.30;;;1.00;;
18172;SDS011;9211;48.818;9.312;2023-09-19T14:21:44;2.67;;;1.07;;
18172;SDS011;9211;48.818;9.312;2023-09-19T14:24:16;4.45;;;1.20;;
18172;SDS011;9211;48.818;9.312;2023-09-19T14:26:43;4.20;;;1.02;;
18172;SDS011;9211;48.818;9.312;2023-09-19T14:29:11;4.18;;;1.35;;
18172;SDS011;9211;48.818;9.312;2023-09-19T14:31:39;2.80;;;1.10;;
18172;SDS011;9211;48.818;9.312;2023-09-19T14:34:06;2.08;;;1.00;;
18172;SDS011;9211;48.818;9.312;2023-09-19T14:36:35;2.95;;;1.10;;
18172;SDS011;9211;48.818;9.312;2023-09-19T14:39:04;2.40;;;1.10;;
18172;SDS011;9211;48.818;9.312;2023-09-19T14:41:31;3.95;;;1.23;;
18172;SDS011;9211;48.818;9.312;2023-09-19T14:43:58;4.93;;;1.02;;
18172;SDS011;9211;48.818;9.312;2023-09-19T14:46:26;1.92;;;1.17;;
18172;SDS011;9211;48.818;9.312;2023-09-19T14:48:53;3.20;;;1.13;;
18172;SDS011;9211;48.818;9.312;2023-09-19T14:51:24;3.37;;;1.10;;
18172;SDS011;9211;48.818;9.312;2023-09-19T14:53:51;1.83;;;0.90;;
18172;SDS011;9211;48.818;9.312;2023-09-19T14:56:19;2.55;;;1.00;;
18172;SDS011;9211;48.818;9.312;2023-09-19T14:58:49;3.15;;;1.20;;
18172;SDS011;9211;48.818;9.312;2023-09-19T15:01:15;4.88;;;1.20;;
18172;SDS011;9211;48.818;9.312;2023-09-19T15:03:45;2.13;;;1.25;;
18172;SDS011;9211;48.818;9.312;2023-09-19T15:06:13;2.92;;;1.20;;
18172;SDS011;9211;48.818;9.312;2023-09-19T15:08:42;2.37;;;1.00;;
18172;SDS011;9211;48.818;9.312;2023-09-19T15:11:12;5.03;;;1.15;;
18172;SDS011;9211;48.818;9.312;2023-09-19T15:13:41;3.50;;;1.20;;
18172;SDS011;9211;48.818;9.312;2023-09-19T15:16:08;3.00;;;1.30;;
18172;SDS011;9211;48.818;9.312;2023-09-19T15:18:36;2.33;;;1.20;;
18172;SDS011;9211;48.818;9.312;2023-09-19T15:21:06;3.58;;;1.50;;
18172;SDS011;9211;48.818;9.312;2023-09-19T15:23:34;4.53;;;1.30;;
18172;SDS011;9211;48.818;9.312;2023-09-19T15:26:02;3.92;;;1.38;;
18172;SDS011;9211;48.818;9.312;2023-09-19T15:28:29;3.70;;;1.40;;
18172;SDS011;9211;48.818;9.312;2023-09-19T15:30:58;2.73;;;1.30;;
18172;SDS011;9211;48.818;9.312;2023-09-19T15:33:26;2.28;;;1.08;;
18172;SDS011;9211;48.818;9.312;2023-09-19T15:35:59;2.23;;;1.00;;
18172;SDS011;9211;48.818;9.312;2023-09-19T15:38:30;3.13;;;1.10;;
18172;SDS011;9211;48.818;9.312;2023-09-19T15:40:58;2.55;;;1.00;;
18172;SDS011;9211;48.818;9.312;2023-09-19T15:43:25;5.45;;;1.20;;
18172;SDS011;9211;48.818;9.312;2023-09-19T15:45:52;2.47;;;0.98;;
18172;SDS011;9211;48.818;9.312;2023-09-19T15:48:19;2.45;;;1.10;;